createdAt,value
2018-03-07T00:00:41.983Z,99360.32
2018-03-07T00:03:08.495Z,99366.76
2018-03-07T00:05:34.866Z,99366.00
2018-03-07T00:08:01.236Z,99353.10
2018-03-07T00:10:27.785Z,99361.45
2018-03-07T00:12:54.153Z,99361.11
2018-03-07T00:15:21.253Z,99360.37
2018-03-07T00:17:47.819Z,99359.75
2018-03-07T00:20:15.078Z,99360.09
2018-03-07T00:22:41.465Z,99367.18
2018-03-07T00:25:08.053Z,99366.59
2018-03-07T00:27:35.006Z,99365.09
2018-03-07T00:30:01.371Z,99370.02
2018-03-07T00:32:28.465Z,99370.80
2018-03-07T00:34:55.036Z,99373.53
2018-03-07T00:37:21.990Z,99367.50
2018-03-07T00:39:48.829Z,99365.45
2018-03-07T00:42:15.449Z,99358.14
2018-03-07T00:44:41.948Z,99361.66
2018-03-07T00:47:08.368Z,99359.53
2018-03-07T00:49:34.736Z,99351.41
2018-03-07T00:52:02.061Z,99347.84
2018-03-07T00:54:28.431Z,99354.70
2018-03-07T00:56:56.048Z,99346.16
2018-03-07T00:59:22.601Z,99348.88
2018-03-07T01:01:49.785Z,99348.25
2018-03-07T01:04:16.888Z,99343.63
2018-03-07T01:06:43.351Z,99346.74
2018-03-07T01:09:09.713Z,99346.77
2018-03-07T01:11:36.806Z,99338.00
2018-03-07T01:14:03.328Z,99342.88
2018-03-07T01:16:29.860Z,99333.70
2018-03-07T01:18:57.298Z,99333.13
2018-03-07T01:21:24.037Z,99340.02
2018-03-07T01:23:50.408Z,99341.69
2018-03-07T01:26:17.515Z,99341.11
2018-03-07T01:28:44.008Z,99341.19
2018-03-07T01:31:10.369Z,99336.78
2018-03-07T01:33:36.736Z,99340.74
2018-03-07T01:36:03.251Z,99337.91
2018-03-07T01:38:29.618Z,99327.00
2018-03-07T01:40:56.560Z,99335.51
2018-03-07T01:43:22.915Z,99327.63
2018-03-07T01:45:50.256Z,99331.75
2018-03-07T01:48:16.632Z,99324.14
2018-03-07T01:50:43.744Z,99324.64
2018-03-07T01:53:10.283Z,99324.96
2018-03-07T01:55:36.657Z,99321.55
2018-03-07T01:58:03.807Z,99321.81
2018-03-07T02:00:30.427Z,99320.97
2018-03-07T02:02:56.783Z,99311.64
2018-03-07T02:05:23.235Z,99312.20
2018-03-07T02:07:50.688Z,99308.81
2018-03-07T02:10:17.044Z,99302.29
2018-03-07T02:12:43.408Z,99305.98
2018-03-07T02:15:09.895Z,99310.56
2018-03-07T02:17:36.260Z,99306.25
2018-03-07T02:20:02.638Z,99310.53
2018-03-07T02:22:29.117Z,99307.36
2018-03-07T02:24:56.212Z,99302.61
2018-03-07T02:27:22.596Z,99303.82
2018-03-07T02:29:49.104Z,99303.28
2018-03-07T02:32:15.922Z,99298.74
2018-03-07T02:34:42.641Z,99300.64
2018-03-07T02:37:09.983Z,99300.06
2018-03-07T02:39:36.364Z,99299.14
2018-03-07T02:42:02.738Z,99295.67
2018-03-07T02:44:29.445Z,99294.91
2018-03-07T02:46:55.835Z,99291.27
2018-03-07T02:49:22.792Z,99297.78
2018-03-07T02:51:49.545Z,99298.77
2018-03-07T02:54:16.396Z,99295.70
2018-03-07T02:56:43.028Z,99294.38
2018-03-07T02:59:09.729Z,99292.71
2018-03-07T03:01:36.104Z,99296.05
2018-03-07T03:04:02.525Z,99297.30
2018-03-07T03:06:29.088Z,99291.20
2018-03-07T03:08:55.577Z,99288.95
2018-03-07T03:11:21.978Z,99288.77
2018-03-07T03:13:48.488Z,99290.43
2018-03-07T03:16:14.867Z,99293.63
2018-03-07T03:18:42.323Z,99289.42
2018-03-07T03:21:09.133Z,99285.77
2018-03-07T03:23:35.500Z,99283.22
2018-03-07T03:26:01.864Z,99287.17
2018-03-07T03:28:28.463Z,99292.19
2018-03-07T03:30:54.818Z,99292.08
2018-03-07T03:33:21.640Z,99292.34
2018-03-07T03:35:48.018Z,99291.69
2018-03-07T03:38:15.111Z,99297.70
2018-03-07T03:40:41.776Z,99292.55
2018-03-07T03:43:08.520Z,99300.47
2018-03-07T03:45:34.964Z,99296.78
2018-03-07T03:48:01.517Z,99296.59
2018-03-07T03:50:27.868Z,99299.19
2018-03-07T03:52:54.968Z,99295.16
2018-03-07T03:55:21.541Z,99294.27
2018-03-07T03:57:47.935Z,99299.55
2018-03-07T04:00:14.440Z,99299.08
2018-03-07T04:02:42.228Z,99293.10
2018-03-07T04:05:09.327Z,99293.14
2018-03-07T04:07:35.937Z,99292.48
2018-03-07T04:10:02.517Z,99296.05
2018-03-07T04:12:29.092Z,99296.48
2018-03-07T04:14:56.197Z,99294.62
2018-03-07T04:17:22.697Z,99295.25
2018-03-07T04:19:50.153Z,99291.83
2018-03-07T04:22:17.676Z,99291.67
2018-03-07T04:24:44.046Z,99300.91
2018-03-07T04:27:10.399Z,99301.92
2018-03-07T04:29:37.631Z,99302.31
2018-03-07T04:32:04.012Z,99306.81
2018-03-07T04:34:30.374Z,99307.16
2018-03-07T04:36:56.924Z,99307.40
2018-03-07T04:39:23.282Z,99316.47
2018-03-07T04:41:50.195Z,99316.13
2018-03-07T04:44:16.949Z,99313.64
2018-03-07T04:46:43.295Z,99321.20
2018-03-07T04:49:09.670Z,99312.67
2018-03-07T04:51:36.900Z,99316.05
2018-03-07T04:54:03.267Z,99312.20
2018-03-07T04:56:30.365Z,99314.00
2018-03-07T04:58:57.018Z,99307.78
2018-03-07T05:01:23.382Z,99306.45
2018-03-07T05:03:49.756Z,99301.80
2018-03-07T05:06:17.356Z,99306.13
2018-03-07T05:08:43.928Z,99300.73
2018-03-07T05:11:10.298Z,99299.72
2018-03-07T05:13:36.776Z,99298.33
2018-03-07T05:16:03.160Z,99297.15
2018-03-07T05:18:30.251Z,99296.92
2018-03-07T05:20:56.803Z,99297.94
2018-03-07T05:23:23.173Z,99297.14
2018-03-07T05:25:50.660Z,99292.42
2018-03-07T05:28:17.971Z,99295.89
2018-03-07T05:30:44.822Z,99294.00
2018-03-07T05:33:11.204Z,99303.12
2018-03-07T05:35:37.579Z,99300.80
2018-03-07T05:38:04.140Z,99300.66
2018-03-07T05:40:30.517Z,99296.90
2018-03-07T05:42:57.341Z,99296.00
2018-03-07T05:45:23.798Z,99300.48
2018-03-07T05:47:50.348Z,99300.02
2018-03-07T05:50:17.130Z,99304.91
2018-03-07T05:52:43.788Z,99301.04
2018-03-07T05:55:10.144Z,99304.97
2018-03-07T05:57:36.692Z,99301.02
2018-03-07T06:00:03.272Z,99294.50
2018-03-07T06:02:30.797Z,99296.47
2018-03-07T06:04:57.680Z,99297.13
2018-03-07T06:07:24.079Z,99294.86
2018-03-07T06:09:50.481Z,99291.93
2018-03-07T06:12:17.050Z,99294.96
2018-03-07T06:14:43.400Z,99293.33
2018-03-07T06:17:10.904Z,99296.78
2018-03-07T06:19:37.588Z,99308.59
2018-03-07T06:22:03.969Z,99318.06
2018-03-07T06:24:30.344Z,99309.25
2018-03-07T06:26:57.207Z,99321.93
2018-03-07T06:29:23.576Z,99320.69
2018-03-07T06:31:50.693Z,99319.77
2018-03-07T06:34:17.232Z,99324.84
2018-03-07T06:36:43.655Z,99324.41
2018-03-07T06:39:09.999Z,99329.44
2018-03-07T06:41:36.874Z,99326.56
2018-03-07T06:44:03.864Z,99321.71
2018-03-07T06:46:31.020Z,99322.74
2018-03-07T06:48:57.607Z,99317.52
2018-03-07T06:51:24.397Z,99320.39
2018-03-07T06:53:51.492Z,99330.36
2018-03-07T06:56:17.853Z,99330.70
2018-03-07T06:58:44.400Z,99332.44
2018-03-07T07:01:10.720Z,99332.64
2018-03-07T07:03:37.175Z,99333.08
2018-03-07T07:06:03.648Z,99338.77
2018-03-07T07:08:31.215Z,99337.77
2018-03-07T07:10:58.718Z,99345.46
2018-03-07T07:13:25.096Z,99348.17
2018-03-07T07:15:52.240Z,99347.98
2018-03-07T07:18:19.067Z,99355.58
2018-03-07T07:20:45.458Z,99356.17
2018-03-07T07:23:12.290Z,99358.51
2018-03-07T07:25:39.897Z,99365.98
2018-03-07T07:28:06.369Z,99364.77
2018-03-07T07:30:32.739Z,99363.45
2018-03-07T07:33:00.066Z,99365.38
2018-03-07T07:35:26.414Z,99368.56
2018-03-07T07:37:52.768Z,99375.03
2018-03-07T07:40:19.989Z,99369.66
2018-03-07T07:42:46.361Z,99375.13
2018-03-07T07:45:13.473Z,99383.89
2018-03-07T07:47:40.479Z,99380.08
2018-03-07T07:50:07.637Z,99384.31
2018-03-07T07:52:34.215Z,99380.05
2018-03-07T07:55:00.768Z,99379.55
2018-03-07T07:57:27.355Z,99388.71
2018-03-07T07:59:54.455Z,99383.97
2018-03-07T08:02:21.556Z,99380.23
2018-03-07T08:04:49.065Z,99383.44
2018-03-07T08:07:15.581Z,99382.30
2018-03-07T08:09:42.173Z,99390.09
2018-03-07T08:12:08.634Z,99384.52
2018-03-07T08:14:34.979Z,99383.25
2018-03-07T08:17:02.621Z,99394.02
2018-03-07T08:19:29.027Z,99392.60
2018-03-07T08:21:55.404Z,99398.91
2018-03-07T08:24:21.912Z,99396.89
2018-03-07T08:26:48.710Z,99391.06
2018-03-07T08:29:16.372Z,99392.46
2018-03-07T08:31:43.486Z,99398.30
2018-03-07T08:34:09.993Z,99401.04
2018-03-07T08:36:36.759Z,99400.63
2018-03-07T08:39:03.209Z,99405.64
2018-03-07T08:41:29.960Z,99400.84
2018-03-07T08:43:56.917Z,99404.25
2018-03-07T08:46:23.286Z,99400.85
2018-03-07T08:48:51.247Z,99411.45
2018-03-07T08:51:17.676Z,99413.77
2018-03-07T08:53:44.178Z,99409.29
2018-03-07T08:56:10.740Z,99412.72
2018-03-07T08:58:37.993Z,99412.05
2018-03-07T09:01:05.252Z,99410.58
2018-03-07T09:03:31.608Z,99413.66
2018-03-07T09:05:58.473Z,99417.81
2018-03-07T09:08:26.417Z,99417.89
2018-03-07T09:10:53.368Z,99419.30
2018-03-07T09:13:19.733Z,99419.31
2018-03-07T09:15:46.835Z,99415.47
2018-03-07T09:18:13.708Z,99420.70
2018-03-07T09:20:40.479Z,99415.56
2018-03-07T09:23:08.473Z,99415.48
2018-03-07T09:25:36.303Z,99420.95
2018-03-07T09:28:02.893Z,99420.13
2018-03-07T09:30:29.723Z,99418.72
2018-03-07T09:32:57.280Z,99414.91
2018-03-07T09:35:25.162Z,99417.53
2018-03-07T09:37:52.289Z,99420.91
2018-03-07T09:40:19.144Z,99422.83
2018-03-07T09:42:45.509Z,99426.20
2018-03-07T09:45:13.066Z,99429.03
2018-03-07T09:47:40.286Z,99426.20
2018-03-07T09:50:08.182Z,99425.78
2018-03-07T09:52:36.123Z,99440.50
2018-03-07T09:55:02.896Z,99448.63
2018-03-07T09:57:29.282Z,99451.17
2018-03-07T09:59:55.656Z,99450.04
2018-03-07T10:02:22.601Z,99449.50
2018-03-07T10:04:50.465Z,99453.92
2018-03-07T10:07:17.312Z,99451.71
2018-03-07T10:09:43.680Z,99454.02
2018-03-07T10:12:10.050Z,99457.09
2018-03-07T10:14:36.619Z,99458.97
2018-03-07T10:17:03.393Z,99461.15
2018-03-07T10:19:32.124Z,99464.70
2018-03-07T10:21:58.556Z,99469.48
2018-03-07T10:24:25.757Z,99470.01
2018-03-07T10:26:52.641Z,99474.87
2018-03-07T10:29:19.410Z,99476.13
2018-03-07T10:31:46.276Z,99475.06
2018-03-07T10:34:12.628Z,99467.53
2018-03-07T10:36:40.232Z,99478.13
2018-03-07T10:39:07.304Z,99472.06
2018-03-07T10:41:34.404Z,99478.05
2018-03-07T10:44:01.576Z,99473.81
2018-03-07T10:46:28.520Z,99476.97
2018-03-07T10:48:54.872Z,99484.41
2018-03-07T10:51:21.906Z,99493.69
2018-03-07T10:53:49.207Z,99494.28
2018-03-07T10:56:16.729Z,99496.25
2018-03-07T10:58:43.505Z,99495.25
2018-03-07T11:01:10.257Z,99500.89
2018-03-07T11:03:36.607Z,99493.20
2018-03-07T11:06:04.329Z,99496.34
2018-03-07T11:08:31.168Z,99494.55
2018-03-07T11:10:58.334Z,99494.19
2018-03-07T11:13:25.214Z,99500.14
2018-03-07T11:15:51.563Z,99498.80
2018-03-07T11:18:19.124Z,99499.23
2018-03-07T11:20:46.648Z,99502.52
2018-03-07T11:23:13.911Z,99501.70
2018-03-07T11:25:41.019Z,99505.33
2018-03-07T11:28:07.853Z,99504.59
2018-03-07T11:30:34.956Z,99501.17
2018-03-07T11:33:01.498Z,99498.52
2018-03-07T11:35:27.873Z,99503.69
2018-03-07T11:37:54.963Z,99499.63
2018-03-07T11:40:21.697Z,99503.82
2018-03-07T11:42:48.896Z,99502.58
2018-03-07T11:45:15.333Z,99503.16
2018-03-07T11:47:42.191Z,99499.70
2018-03-07T11:50:08.582Z,99499.81
2018-03-07T11:52:34.965Z,99501.48
2018-03-07T11:55:01.449Z,99500.75
2018-03-07T11:57:27.818Z,99500.56
2018-03-07T11:59:54.174Z,99500.30
2018-03-07T12:02:20.921Z,99500.89
2018-03-07T12:04:47.321Z,99502.05
2018-03-07T12:07:13.701Z,99503.38
2018-03-07T12:09:42.124Z,99506.11
2018-03-07T12:12:08.773Z,99507.91
2018-03-07T12:14:35.138Z,99508.97
2018-03-07T12:17:02.021Z,99500.02
2018-03-07T12:19:28.376Z,99500.77
2018-03-07T12:21:55.505Z,99498.05
2018-03-07T12:24:22.149Z,99494.60
2018-03-07T12:26:49.088Z,99495.84
2018-03-07T12:29:15.861Z,99490.17
2018-03-07T12:31:42.713Z,99495.95
2018-03-07T12:34:09.736Z,99487.84
2018-03-07T12:36:36.722Z,99490.16
2018-03-07T12:39:04.264Z,99486.16
2018-03-07T12:41:30.622Z,99480.27
2018-03-07T12:43:58.265Z,99485.94
2018-03-07T12:46:25.505Z,99483.44
2018-03-07T12:48:52.768Z,99484.71
2018-03-07T12:51:19.745Z,99477.58
2018-03-07T12:53:46.600Z,99481.54
2018-03-07T12:56:14.064Z,99483.82
2018-03-07T12:58:41.578Z,99477.83
2018-03-07T13:01:08.456Z,99476.45
2018-03-07T13:03:35.904Z,99476.52
2018-03-07T13:06:02.655Z,99477.63
2018-03-07T13:08:29.422Z,99479.38
2018-03-07T13:10:55.818Z,99481.40
2018-03-07T13:13:22.205Z,99480.03
2018-03-07T13:15:49.528Z,99481.30
2018-03-07T13:18:16.690Z,99484.34
2018-03-07T13:20:43.088Z,99485.28
2018-03-07T13:23:09.469Z,99485.12
2018-03-07T13:25:35.954Z,99486.00
2018-03-07T13:28:02.365Z,99490.19
2018-03-07T13:30:29.532Z,99485.27
2018-03-07T13:32:56.069Z,99483.20
2018-03-07T13:35:22.509Z,99481.78
2018-03-07T13:37:49.382Z,99481.17
2018-03-07T13:40:16.883Z,99492.84
2018-03-07T13:42:43.293Z,99489.23
2018-03-07T13:45:09.685Z,99486.70
2018-03-07T13:47:36.192Z,99489.44
2018-03-07T13:50:02.626Z,99491.44
2018-03-07T13:52:29.005Z,99490.06
2018-03-07T13:54:55.492Z,99494.05
2018-03-07T13:57:21.871Z,99490.37
2018-03-07T13:59:48.235Z,99496.09
2018-03-07T14:02:15.513Z,99493.75
2018-03-07T14:04:41.892Z,99493.44
2018-03-07T14:07:08.300Z,99501.92
2018-03-07T14:09:34.877Z,99496.78
2018-03-07T14:12:01.260Z,99501.30
2018-03-07T14:14:27.636Z,99500.23
2018-03-07T14:16:54.394Z,99505.78
2018-03-07T14:19:20.767Z,99506.72
2018-03-07T14:21:47.884Z,99507.11
2018-03-07T14:24:14.392Z,99508.19
2018-03-07T14:26:40.793Z,99532.19
2018-03-07T14:29:08.645Z,99506.88
2018-03-07T14:31:36.074Z,99502.88
2018-03-07T14:34:02.844Z,99510.35
2018-03-07T14:36:29.512Z,99513.72
2018-03-07T14:38:56.721Z,99505.98
2018-03-07T14:41:23.097Z,99506.16
2018-03-07T14:43:49.740Z,99507.92
2018-03-07T14:46:16.595Z,99511.43
2018-03-07T14:48:43.705Z,99510.79
2018-03-07T14:51:17.742Z,99513.98
2018-03-07T14:53:44.130Z,99514.15
2018-03-07T14:56:10.509Z,99514.50
2018-03-07T14:58:37.020Z,99508.50
2018-03-07T15:01:03.404Z,99512.34
2018-03-07T15:03:29.825Z,99515.00
2018-03-07T15:05:56.600Z,99508.66
2018-03-07T15:08:23.744Z,99518.80
2018-03-07T15:10:50.454Z,99512.16
2018-03-07T15:13:17.146Z,99508.83
2018-03-07T15:15:43.538Z,99514.73
2018-03-07T15:18:10.382Z,99512.91
2018-03-07T15:20:37.260Z,99522.81
2018-03-07T15:23:03.623Z,99512.52
2018-03-07T15:25:30.729Z,99516.05
2018-03-07T15:27:57.215Z,99517.03
2018-03-07T15:30:23.593Z,99520.68
2018-03-07T15:32:49.983Z,99526.28
2018-03-07T15:35:17.209Z,99523.89
2018-03-07T15:37:43.576Z,99527.06
2018-03-07T15:40:10.687Z,99530.97
2018-03-07T15:42:37.251Z,99537.19
2018-03-07T15:45:03.656Z,99544.08
2018-03-07T15:47:31.010Z,99549.05
2018-03-07T15:49:57.581Z,99540.84
2018-03-07T15:52:23.957Z,99548.53
2018-03-07T15:54:51.080Z,99551.23
2018-03-07T15:57:17.618Z,99556.60
2018-03-07T15:59:43.988Z,99561.70
2018-03-07T16:02:11.111Z,99559.90
2018-03-07T16:04:37.587Z,99568.34
2018-03-07T16:07:04.742Z,99566.18
2018-03-07T16:09:31.863Z,99570.98
2018-03-07T16:11:58.416Z,99578.49
2018-03-07T16:14:25.742Z,99580.56
2018-03-07T16:16:52.134Z,99584.80
2018-03-07T16:19:19.844Z,99585.70
2018-03-07T16:21:46.605Z,99590.77
2018-03-07T16:24:13.390Z,99588.38
2018-03-07T16:26:40.632Z,99596.95
2018-03-07T16:29:07.661Z,99592.64
2018-03-07T16:31:34.488Z,99596.37
2018-03-07T16:34:00.879Z,99596.29
2018-03-07T16:36:28.522Z,99599.47
2018-03-07T16:38:54.890Z,99608.78
2018-03-07T16:41:22.002Z,99607.53
2018-03-07T16:43:48.536Z,99614.18
2018-03-07T16:46:14.905Z,99612.94
2018-03-07T16:48:41.688Z,99606.95
2018-03-07T16:51:08.270Z,99615.78
2018-03-07T16:53:34.643Z,99614.42
2018-03-07T16:56:01.799Z,99626.39
2018-03-07T16:58:28.400Z,99629.19
2018-03-07T17:00:54.781Z,99627.95
2018-03-07T17:03:21.932Z,99632.95
2018-03-07T17:05:49.138Z,99628.73
2018-03-07T17:08:15.502Z,99629.02
2018-03-07T17:10:41.883Z,99626.87
2018-03-07T17:13:08.469Z,99630.03
2018-03-07T17:15:34.848Z,99631.69
2018-03-07T17:18:02.422Z,99640.80
2018-03-07T17:20:29.526Z,99639.36
2018-03-07T17:22:55.901Z,99644.50
2018-03-07T17:25:23.221Z,99646.10
2018-03-07T17:27:49.615Z,99656.56
2018-03-07T17:30:16.013Z,99654.16
2018-03-07T17:32:42.512Z,99665.78
2018-03-07T17:35:08.912Z,99667.20
2018-03-07T17:37:36.020Z,99678.97
2018-03-07T17:40:02.872Z,99684.64
2018-03-07T17:42:29.248Z,99685.97
2018-03-07T17:44:56.357Z,99681.98
2018-03-07T17:47:22.910Z,99689.70
2018-03-07T17:49:49.315Z,99693.45
2018-03-07T17:52:15.720Z,99693.95
2018-03-07T17:54:43.040Z,99699.42
2018-03-07T17:57:09.465Z,99703.89
2018-03-07T17:59:36.462Z,99713.61
2018-03-07T18:02:03.162Z,99713.53
2018-03-07T18:04:30.031Z,99717.27
2018-03-07T18:06:56.407Z,99720.35
2018-03-07T18:09:23.509Z,99720.17
2018-03-07T18:11:50.061Z,99724.41
2018-03-07T18:14:16.432Z,99721.58
2018-03-07T18:16:43.551Z,99727.95
2018-03-07T18:19:10.404Z,99726.09
2018-03-07T18:21:36.780Z,99739.88
2018-03-07T18:24:03.879Z,99735.56
2018-03-07T18:26:30.413Z,99732.83
2018-03-07T18:28:56.810Z,99735.75
2018-03-07T18:31:24.405Z,99735.84
2018-03-07T18:33:50.956Z,99745.88
2018-03-07T18:36:17.368Z,99746.20
2018-03-07T18:38:43.881Z,99746.93
2018-03-07T18:41:10.796Z,99739.73
2018-03-07T18:43:37.629Z,99742.02
2018-03-07T18:46:04.539Z,99752.66
2018-03-07T18:48:32.283Z,99755.22
2018-03-07T18:50:59.525Z,99760.47
2018-03-07T18:53:26.107Z,99760.94
2018-03-07T18:55:53.258Z,99759.69
2018-03-07T18:58:20.581Z,99762.08
2018-03-07T19:00:47.107Z,99768.05
2018-03-07T19:03:13.865Z,99768.27
2018-03-07T19:05:40.835Z,99767.94
2018-03-07T19:08:07.291Z,99778.41
2018-03-07T19:10:33.759Z,99770.78
2018-03-07T19:13:00.350Z,99771.54
2018-03-07T19:15:26.763Z,99774.56
2018-03-07T19:17:53.156Z,99773.36
2018-03-07T19:20:19.724Z,99774.19
2018-03-07T19:22:46.624Z,99775.81
2018-03-07T19:25:13.244Z,99777.63
2018-03-07T19:27:40.181Z,99778.95
2018-03-07T19:30:07.017Z,99784.77
2018-03-07T19:32:34.410Z,99790.48
2018-03-07T19:35:01.289Z,99796.47
2018-03-07T19:37:28.509Z,99800.39
2018-03-07T19:39:55.705Z,99803.55
2018-03-07T19:42:22.948Z,99810.39
2018-03-07T19:44:49.354Z,99817.38
2018-03-07T19:47:16.040Z,99824.13
2018-03-07T19:49:42.810Z,99827.77
2018-03-07T19:52:09.755Z,99826.87
2018-03-07T19:54:36.770Z,99829.78
2018-03-07T19:57:03.807Z,99837.25
2018-03-07T19:59:30.624Z,99844.58
2018-03-07T20:01:57.932Z,99843.30
2018-03-07T20:04:25.613Z,99856.87
2018-03-07T20:06:51.968Z,99843.92
2018-03-07T20:09:18.793Z,99873.07
2018-03-07T20:11:45.712Z,99867.15
2018-03-07T20:14:12.515Z,99872.45
2018-03-07T20:16:39.632Z,99864.55
2018-03-07T20:19:06.621Z,99868.53
2018-03-07T20:21:33.032Z,99877.42
2018-03-07T20:23:59.596Z,99879.98
2018-03-07T20:26:26.325Z,99883.27
2018-03-07T20:28:54.189Z,99891.48
2018-03-07T20:31:22.001Z,99902.09
2018-03-07T20:33:48.973Z,99898.78
2018-03-07T20:36:15.797Z,99904.63
2018-03-07T20:38:42.182Z,99907.02
2018-03-07T20:41:08.758Z,99909.20
2018-03-07T20:43:35.135Z,99915.39
2018-03-07T20:46:01.523Z,99915.80
2018-03-07T20:48:28.791Z,99918.83
2018-03-07T20:50:55.901Z,99929.61
2018-03-07T20:53:22.309Z,99928.28
2018-03-07T20:55:48.973Z,99929.72
2018-03-07T20:58:15.359Z,99931.76
2018-03-07T21:00:42.519Z,99930.02
2018-03-07T21:03:09.819Z,99938.72
2018-03-07T21:05:36.541Z,99942.86
2018-03-07T21:08:03.391Z,99953.45
2018-03-07T21:10:29.800Z,99956.27
2018-03-07T21:12:56.947Z,99963.41
2018-03-07T21:15:23.459Z,99961.47
2018-03-07T21:17:50.049Z,99963.34
2018-03-07T21:20:17.180Z,99962.39
2018-03-07T21:22:43.664Z,99967.27
2018-03-07T21:25:10.098Z,99964.16
2018-03-07T21:27:36.845Z,99972.56
2018-03-07T21:30:03.825Z,99973.03
2018-03-07T21:32:30.596Z,99969.80
2018-03-07T21:34:57.343Z,99972.92
2018-03-07T21:37:24.274Z,99977.73
2018-03-07T21:39:51.091Z,99975.16
2018-03-07T21:42:17.500Z,99982.69
2018-03-07T21:44:44.347Z,99986.78
2018-03-07T21:47:10.789Z,99984.21
2018-03-07T21:49:37.910Z,99989.29
2018-03-07T21:52:04.441Z,99990.89
2018-03-07T21:54:30.839Z,99990.19
2018-03-07T21:56:57.238Z,99982.78
2018-03-07T21:59:23.731Z,99991.59
2018-03-07T22:01:50.241Z,99989.73
2018-03-07T22:04:17.361Z,99999.31
2018-03-07T22:06:43.901Z,99997.72
2018-03-07T22:09:10.796Z,100004.73
2018-03-07T22:11:37.153Z,100003.80
2018-03-07T22:14:03.883Z,100001.23
2018-03-07T22:16:30.839Z,100012.64
2018-03-07T22:18:58.242Z,100008.27
2018-03-07T22:21:25.388Z,100010.53
2018-03-07T22:23:52.133Z,100015.31
2018-03-07T22:26:19.209Z,100009.75
2018-03-07T22:28:45.884Z,100013.80
2018-03-07T22:31:12.637Z,100006.75
2018-03-07T22:33:39.649Z,100009.05
2018-03-07T22:36:06.989Z,100007.03
2018-03-07T22:38:33.361Z,100017.42
2018-03-07T22:40:59.763Z,100014.42
2018-03-07T22:43:26.307Z,100024.39
2018-03-07T22:45:52.745Z,100025.75
2018-03-07T22:48:19.106Z,100029.52
2018-03-07T22:50:45.667Z,100033.07
2018-03-07T22:53:12.801Z,100041.27
2018-03-07T22:55:39.591Z,100046.39
2018-03-07T22:58:06.577Z,100046.70
2018-03-07T23:00:38.936Z,100049.58
2018-03-07T23:03:05.308Z,100053.05
2018-03-07T23:05:32.171Z,100063.17
2018-03-07T23:07:59.307Z,100054.66
2018-03-07T23:10:25.967Z,100063.36
2018-03-07T23:12:53.201Z,100067.59
2018-03-07T23:15:20.119Z,100067.61
2018-03-07T23:17:46.893Z,100060.17
2018-03-07T23:20:14.145Z,100062.55
2018-03-07T23:22:41.400Z,100060.13
2018-03-07T23:25:08.108Z,100059.64
2018-03-07T23:27:35.309Z,100065.15
2018-03-07T23:30:02.601Z,100063.19
2018-03-07T23:32:30.149Z,100066.05
2018-03-07T23:34:57.072Z,100067.87
2018-03-07T23:37:23.440Z,100074.77
2018-03-07T23:39:51.000Z,100070.41
2018-03-07T23:42:17.920Z,100077.02
2018-03-07T23:44:44.307Z,100078.35
2018-03-07T23:47:11.998Z,100081.11
2018-03-07T23:49:38.356Z,100082.50
2018-03-07T23:52:05.308Z,100080.80
2018-03-07T23:54:31.996Z,100085.23
2018-03-07T23:56:59.106Z,100090.80
2018-03-07T23:59:25.963Z,100087.27
